2022年5月23日

时间 代码 天气 温度 能见度 乌云 METAR/SPECI
20:00
V
15 °C 10 km+ 4.800 ft 260°   260° 11 kt METAR LFBD 231800Z AUTO 26011KT 9999 FEW014/// SCT021/// BKN048/// ///TCU 15/13 Q1011 TEMPO 4000 SHRA
19:30
M
18 °C 10 km+ 2.200 ft 250°   250° 16 kt METAR LFBD 231730Z AUTO 25016KT 9999 BKN022/// BKN032/// BKN039/// //////TCU 18/13 Q1011 TEMPO 4000 SHRA
19:00
M
18 °C 10 km+ 2.900 ft 240°   240° 13 kt METAR LFBD 231700Z AUTO 24013KT 9999 SCT023/// BKN029/// BKN034/// ///TCU 18/13 Q1011 TEMPO 24015G25KT 4000 SHRA BKN010 BKN030TCU
18:30
M
18 °C 10 km+ 2.500 ft 240°   240° 14 kt METAR LFBD 231630Z AUTO 24014KT 9999 FEW020 BKN025 BKN041 18/13 Q1011 TEMPO 24015G25KT 4000 SHRA BKN010 BKN030TCU
18:00
V
17 °C 10 km+ 4.100 ft 260°   260° 10 kt METAR LFBD 231600Z AUTO 26010KT 220V280 9999 FEW023 BKN041 BKN047 17/15 Q1011 TEMPO 24015G25KT 4000 SHRA BKN010 BKN030TCU
17:30
V
19 °C 10 km+ 3.500 ft 250°   250° 14 kt METAR LFBD 231530Z AUTO 25014KT 9999 -RA FEW022 BKN035 OVC054 19/14 Q1011 TEMPO 24015G25KT 4000 SHRA BKN010 BKN030TCU
17:00
V
18 °C 10 km+ 3.800 ft 250°   250° 15 kt METAR LFBD 231500Z AUTO 25015KT 9999 -RA SCT026 BKN038 BKN047 18/15 Q1011 NOSIG
16:30
M
20 °C 10 km+ 2.500 ft 240°   240° 15 kt METAR LFBD 231430Z AUTO 24015KT 9999 BKN025 BKN032 BKN040 20/14 Q1011 NOSIG
16:00
M
19 °C 10 km+ 2.300 ft 240°   240° 16 kt METAR LFBD 231400Z AUTO 24016KT 9999 BKN023 BKN030 BKN040 19/14 Q1011 NOSIG
15:30
M
19 °C 10 km+ 2.300 ft 240°   240° 17 kt METAR LFBD 231330Z AUTO 24017KT 9999 BKN023 BKN029 BKN039 19/14 Q1011 NOSIG
15:00
V
19 °C 10 km+ 3.300 ft 250°   250° 14 kt METAR LFBD 231300Z AUTO 25014KT 9999 -RA SCT025 BKN033 OVC043 19/14 Q1011 NOSIG
14:30
M
20 °C 10 km+ 2.500 ft 240°   240° 13 kt METAR LFBD 231230Z AUTO 24013KT 9999 BKN025 BKN032 BKN040 20/14 Q1010 NOSIG
14:00
V
20 °C 10 km+ 3.000 ft 250°   250° 13 kt METAR LFBD 231200Z AUTO 25013KT 9999 BKN030 BKN039 OVC082 20/14 Q1010 NOSIG
13:30
V
20 °C 10 km+ 3.200 ft 250°   250° 15 kt METAR LFBD 231130Z AUTO 25015KT 220V280 9999 BKN032 BKN039 BKN045 20/12 Q1010 NOSIG
13:00
V
20 °C 10 km+ 3.000 ft 270°   270° 12 kt METAR LFBD 231100Z AUTO 27012KT 9999 BKN030 BKN036 BKN045 20/12 Q1010 TEMPO 24015G25KT 4000 SHRA BKN005 BKN040TCU
12:30
M
19 °C 10 km+ 2.800 ft 260°   260° 16 kt METAR LFBD 231030Z AUTO 26016KT 9999 BKN028 BKN034 BKN042 19/12 Q1011 TEMPO 24015G25KT 4000 SHRA BKN005 BKN040TCU
12:00
M
19 °C 10 km+ 2.300 ft 270°   270° 14 kt METAR LFBD 231000Z AUTO 27014KT 9999 BKN023 BKN033 OVC120 19/13 Q1010 TEMPO 24015G25KT 4000 SHRA BKN005 BKN040TCU
11:30
M
19 °C 10 km+ 2.300 ft 270°   270° 13 kt METAR LFBD 230930Z AUTO 27013KT 9999 BKN023 OVC031 19/14 Q1010 TEMPO 24015G25KT 4000 SHRA BKN005 BKN040TCU
11:00
M
17 °C 10 km+ 1.900 ft 260°   260° 14 kt METAR LFBD 230900Z AUTO 26014KT 9999 BKN019 BKN025 BKN031 17/13 Q1010 TEMPO 24015G25KT 4000 SHRA BKN005 BKN040TCU
10:30
M
17 °C 10 km+ 1.700 ft 250°   250° 12 kt METAR LFBD 230830Z AUTO 25012KT 9999 BKN017 BKN026 BKN032 17/14 Q1010 TEMPO 24015G25KT 4000 SHRA BKN005 BKN040TCU
10:00
V
17 °C 10 km+ 5.200 ft 260°   260° 12 kt METAR LFBD 230800Z AUTO 26012KT 9999 FEW018 BKN052 OVC062 17/13 Q1010 TEMPO 24015G25KT 4000 SHRA BKN005 BKN040TCU
09:30
V
17 °C 10 km+ 5.000 ft 250°   250° 12 kt METAR LFBD 230730Z AUTO 25012KT 9999 FEW016 OVC050 17/14 Q1010 TEMPO 24015G25KT 4000 SHRA BKN005 BKN040TCU
09:00
M
16 °C 10 km+ 1.500 ft 250°   250° 11 kt METAR LFBD 230700Z AUTO 25011KT 9999 BKN015 BKN020 OVC048 16/14 Q1010 TEMPO 24015G25KT 4000 SHRA BKN005 BKN040TCU
08:30
M
17 °C 10 km+ 1.400 ft 260°   260° 14 kt METAR LFBD 230630Z AUTO 26014KT 9999 BKN014 BKN023 OVC041 17/14 Q1009 TEMPO 24015G25KT 4000 SHRA BKN005 BKN040TCU
08:00
M
17 °C 10 km+ 1.400 ft 260°   260° 14 kt METAR LFBD 230600Z AUTO 26014KT 9999 BKN014 BKN035 BKN043 17/14 Q1009 TEMPO 24015G25KT 4000 SHRA BKN005 BKN040TCU
07:30
M
17 °C 10 km+ 1.200 ft 260°   260° 14 kt METAR LFBD 230530Z AUTO 26014KT 9999 BKN012/// BKN022/// OVC035/// //////CB 17/15 Q1008 TEMPO 24015G25KT 4000 SHRA BKN005 BKN040TCU
07:00
M
17 °C 10 km+ 2.200 ft 250°   250° 14 kt METAR LFBD 230500Z AUTO 25014KT 9999 SCT013 BKN022 OVC027 17/15 Q1008 TEMPO 24015G25KT 4000 -SHRA BKN007 SCT070TCU
06:30
M
17 °C 10 km+ 1.800 ft 260°   260° 14 kt METAR LFBD 230430Z AUTO 26014KT 9999 FEW011 BKN018 BKN041 17/15 Q1008 TEMPO 24015G25KT 4000 -SHRA BKN007 SCT070TCU
06:00
M
17 °C 10 km+ 1.100 ft 240°   240° 11 kt METAR LFBD 230400Z AUTO 24011KT 9999 BKN011/// BKN018/// OVC024/// //////TCU 17/15 Q1008 TEMPO 24015G25KT 4000 -SHRA BKN007 SCT070TCU
05:30
M
17 °C 10 km+ 2.200 ft 250°   250° 12 kt METAR LFBD 230330Z AUTO 25012KT 9999 SCT012 BKN022 OVC049 17/15 Q1008 TEMPO 24015G25KT 4000 -SHRA BKN007 SCT070TCU
05:00
M
17 °C 10 km+ 1.100 ft 250°   250° 11 kt METAR LFBD 230300Z AUTO 25011KT 9999 BKN011 BKN017 OVC022 17/16 Q1008 TEMPO 24015G25KT 4000 -SHRA BKN007 SCT070TCU
04:30
I
17 °C 6 km 700 ft 250°   250° 12 kt METAR LFBD 230230Z AUTO 25012KT 6000 -DZ BKN007 OVC011 17/16 Q1008 TEMPO 24015G25KT 4000 -SHRA BKN007 SCT070TCU
04:00
I
18 °C 10 km+ 800 ft 230°   230° 15 kt METAR LFBD 230200Z AUTO 23015KT 9999 BKN008 OVC013 18/16 Q1008 TEMPO 24015G25KT 4000 -SHRA BKN007 SCT070TCU
03:30
I
18 °C 10 km+ 800 ft 240°   240° 13 kt METAR LFBD 230130Z AUTO 24013KT 9999 BKN008 BKN012 OVC017 18/17 Q1008 TEMPO 24015G25KT 4000 -SHRA BKN007 SCT070TCU
03:00
I
18 °C 10 km+ 700 ft 230°   230° 14 kt METAR LFBD 230100Z AUTO 23014KT 9999 BKN007 OVC012 18/17 Q1008 TEMPO 24015G25KT 4000 -SHRA BKN007 SCT070TCU
02:30
I
18 °C 10 km+ 800 ft 240°   240° 13 kt METAR LFBD 230030Z AUTO 24013KT 9999 BKN008/// BKN024/// OVC100/// ///CB 18/17 Q1008 TEMPO 24015G25KT 4000 -SHRA
02:00
M
18 °C 5 km 1.000 ft 230°   230° 11 kt METAR LFBD 230000Z AUTO 23011KT 190V270 5000 TSRA BR BKN010/// BKN080/// OVC100/// ///CB 18/17 Q1009 TEMPO 24015G25KT NSW
01:30
M
19 °C 10 km+ 1.100 ft 240°   240° 15 kt METAR LFBD 222330Z AUTO 24015KT 9999 BKN011/// OVC018/// //////CB 19/16 Q1009 TEMPO 24015G25KT 4000 -RA BKN007 SCT070TCU
01:00
M
19 °C 10 km+ 1.100 ft 230°   230° 15 kt METAR LFBD 222300Z AUTO 23015KT 9999 BKN011 OVC019 19/16 Q1009 TEMPO 24015G25KT 4000 -RA BKN007 SCT070TCU
00:30
V
19 °C 10 km+ - 220°   220° 11 kt METAR LFBD 222230Z AUTO 22011KT 9999 FEW012 SCT150 19/16 Q1009 TEMPO 24015G25KT 4000 -RA BKN007 SCT070TCU
00:00
V
20 °C 10 km+ - 280°   280° 10 kt METAR LFBD 222200Z AUTO 28010KT 9999 //////TCU 20/15 Q1008 TEMPO 27015G30KT 4000 TSRA BKN070CB

2022年5月22日

时间 代码 天气 温度 能见度 乌云 METAR/SPECI
23:30
V
20 °C 10 km+ 7.400 ft 270°   270° 16 kt METAR LFBD 222130Z AUTO 27016KT 9999 FEW014/// BKN074/// BKN088/// //////CB 20/16 Q1008 TEMPO 24015G25KT 4000 -RA BKN007 SCT070TCU
23:00
V
20 °C 10 km+ 6.400 ft 250°   250° 24 kt METAR LFBD 222100Z AUTO 25024KT 9999 SCT015/// BKN064/// BKN080/// //////CB 20/17 Q1009 TEMPO 24015G25KT 4000 -RA BKN007 SCT070TCU
22:30
V
21 °C 10 km+ - 240°   240° 12 kt METAR LFBD 222030Z AUTO 24012KT CAVOK 21/17 Q1008 TEMPO 24015G25KT 4000 -RA BKN007 SCT070TCU
22:00
V
22 °C 10 km+ - 250°   250° 11 kt METAR LFBD 222000Z AUTO 25011KT CAVOK 22/17 Q1008 TEMPO 24015G25KT 4000 -RA BKN007 SCT070TCU
21:30
V
23 °C 10 km+ - 260°   260° 13 kt METAR LFBD 221930Z AUTO 26013KT CAVOK 23/18 Q1007 TEMPO 24015G25KT 4000 -RA BKN007 SCT070TCU
21:00
V
27 °C 10 km+ - 270°   270° 10 kt METAR LFBD 221900Z AUTO 27010KT CAVOK 27/18 Q1006 TEMPO 27015G30KT 4000 TSRA BKN070CB
20:30
V
28 °C 10 km+ - 260°   260° 5 kt METAR LFBD 221830Z AUTO 26005KT 230V290 CAVOK 28/18 Q1006 TEMPO 27015G30KT 4000 TSRA BKN070CB
20:00
V
28 °C 10 km+ - 260°   260° 9 kt METAR LFBD 221800Z AUTO 26009KT 9999 FEW012 28/18 Q1006 TEMPO 27015G30KT 4000 TSRA BKN070CB
19:30
V
29 °C 10 km+ - 260°   260° 11 kt METAR LFBD 221730Z AUTO 26011KT CAVOK 29/16 Q1006 TEMPO 27015G30KT 4000 TSRA BKN070CB
19:00
V
30 °C 10 km+ - 270°   270° 11 kt METAR LFBD 221700Z AUTO 27011KT CAVOK 30/16 Q1006 TEMPO 27015G30KT 4000 TSRA BKN070CB
18:30
V
31 °C 10 km+ - 260°   260° 13 kt METAR LFBD 221630Z AUTO 26013KT CAVOK 31/17 Q1006 TEMPO 27015G30KT 4000 TSRA BKN070CB
18:00
V
32 °C 10 km+ - 240°   240° 12 kt METAR LFBD 221600Z AUTO 24012KT 9999 //////TCU 32/17 Q1006 TEMPO 27015G30KT 4000 TSRA BKN070CB
17:30
V
32 °C 10 km+ - 250°   250° 8 kt METAR LFBD 221530Z AUTO 25008KT 210V280 CAVOK 32/18 Q1006 TEMPO 27015G30KT 4000 TSRA BKN070CB
17:00
V
33 °C 10 km+ - 230°   230° 6 kt METAR LFBD 221500Z AUTO 23006KT 200V270 CAVOK 33/18 Q1006 TEMPO 27015G30KT 4000 TSRA BKN070CB
16:30
V
33 °C 10 km+ - 150°   150° 5 kt METAR LFBD 221430Z AUTO 15005KT 100V210 CAVOK 33/19 Q1006 TEMPO 27015G30KT 4000 TSRA BKN070CB
16:00
V
32 °C 10 km+ - 180°   180° 6 kt METAR LFBD 221400Z AUTO 18006KT 140V200 CAVOK 32/20 Q1007 NOSIG
15:30
V
32 °C 10 km+ - 140°   140° 8 kt METAR LFBD 221330Z AUTO 14008KT 100V170 CAVOK 32/19 Q1007 BECMG 25012KT
15:00
V
30 °C 10 km+ - 120°   120° 10 kt METAR LFBD 221300Z AUTO 12010KT 080V160 CAVOK 30/21 Q1007 BECMG 25012KT
14:30
V
30 °C 10 km+ - 120°   120° 9 kt METAR LFBD 221230Z AUTO 12009KT 090V160 CAVOK 30/21 Q1008 BECMG 25012KT
14:00
V
29 °C 10 km+ - 100°   100° 10 kt METAR LFBD 221200Z AUTO 10010KT 080V140 CAVOK 29/20 Q1008 NOSIG
13:30
V
29 °C 10 km+ - 130°   130° 7 kt METAR LFBD 221130Z AUTO 13007KT 090V180 CAVOK 29/20 Q1009 NOSIG
13:00
V
29 °C 10 km+ - 140°   140° 6 kt METAR LFBD 221100Z AUTO 14006KT 070V180 CAVOK 29/20 Q1009 NOSIG
12:30
V
28 °C 10 km+ - 110°   110° 6 kt METAR LFBD 221030Z AUTO 11006KT 070V150 CAVOK 28/20 Q1009 NOSIG
12:00
V
28 °C 10 km+ - 120°   120° 4 kt METAR LFBD 221000Z AUTO 12004KT 070V170 CAVOK 28/21 Q1010 NOSIG
11:30
V
26 °C 10 km+ - 210°   210° 4 kt METAR LFBD 220930Z AUTO 21004KT 180V270 CAVOK 26/20 Q1010 NOSIG
11:00
V
25 °C 10 km+ - 240°   240° 4 kt METAR LFBD 220900Z AUTO 24004KT 190V280 CAVOK 25/20 Q1010 BECMG 13010KT
10:30
V
24 °C 10 km+ - 200°   200° 5 kt METAR LFBD 220830Z AUTO 20005KT 170V240 CAVOK 24/20 Q1010 NOSIG
10:00
V
23 °C 10 km+ - 220°   220° 7 kt METAR LFBD 220800Z AUTO 22007KT CAVOK 23/20 Q1011 BECMG 13010KT
09:30
V
22 °C 9 km - Var   Var 2 kt METAR LFBD 220730Z AUTO VRB02KT 9000 NSC 22/20 Q1011 NOSIG
09:00
V
22 °C 10 km+ - 160°   160° 3 kt METAR LFBD 220700Z AUTO 16003KT 110V190 CAVOK 22/20 Q1011 NOSIG
08:30
V
21 °C 10 km+ - 130°   130° 4 kt METAR LFBD 220630Z AUTO 13004KT CAVOK 21/19 Q1011 NOSIG
08:00
V
21 °C 10 km+ - 110°   110° 3 kt METAR LFBD 220600Z AUTO 11003KT 060V150 CAVOK 21/19 Q1011 NOSIG
07:30
V
20 °C 8 km - 120°   120° 3 kt METAR LFBD 220530Z AUTO 12003KT 8000 NSC 20/19 Q1011 NOSIG
07:00
I
20 °C 3,9 km - Var   Var 1 kt METAR LFBD 220500Z AUTO VRB01KT 8000 3900 NSC 20/19 Q1012 NOSIG
06:30
V
20 °C 9 km - Var   Var 2 kt METAR LFBD 220430Z AUTO VRB02KT 9000 NSC 20/19 Q1012 NOSIG
06:00
I
20 °C 4 km - 270°   270° 5 kt METAR LFBD 220400Z AUTO 27005KT 240V320 9000 4000 NSC 20/19 Q1013 NOSIG
05:30
M
21 °C 7 km - 280°   280° 4 kt METAR LFBD 220330Z AUTO 28004KT 7000 NSC 21/19 Q1013 NOSIG
05:00
V
21 °C 10 km+ - 260°   260° 2 kt METAR LFBD 220300Z AUTO 26002KT CAVOK 21/19 Q1012 NOSIG
04:30
V
21 °C 10 km+ - 260°   260° 2 kt METAR LFBD 220230Z AUTO 26002KT CAVOK 21/19 Q1013 NOSIG
04:00
V
21 °C 10 km+ - 240°   240° 5 kt METAR LFBD 220200Z AUTO 24005KT CAVOK 21/19 Q1013 NOSIG
03:30
V
22 °C 10 km+ - Var   000° 0 kt METAR LFBD 220130Z AUTO 00000KT CAVOK 22/19 Q1013 NOSIG
03:00
V
22 °C 10 km+ - 040°   040° 5 kt METAR LFBD 220100Z AUTO 04005KT CAVOK 22/19 Q1012 NOSIG
02:30
V
22 °C 10 km+ - Var   Var 2 kt METAR LFBD 220030Z AUTO VRB02KT CAVOK 22/19 Q1013 NOSIG
02:00
V
22 °C 10 km+ - 310°   310° 2 kt METAR LFBD 220000Z AUTO 31002KT CAVOK 22/19 Q1013 NOSIG
01:30
V
22 °C 10 km+ - Var   Var 2 kt METAR LFBD 212330Z AUTO VRB02KT CAVOK 22/19 Q1013 NOSIG
01:00
V
22 °C 10 km+ - Var   000° 0 kt METAR LFBD 212300Z AUTO 00000KT CAVOK 22/19 Q1014 NOSIG
00:30
V
23 °C 10 km+ - Var   000° 0 kt METAR LFBD 212230Z AUTO 00000KT CAVOK 23/19 Q1014 NOSIG
00:00
V
24 °C 10 km+ - 030°   030° 3 kt METAR LFBD 212200Z AUTO 03003KT CAVOK 24/19 Q1014 NOSIG

2022年5月21日

时间 代码 天气 温度 能见度 乌云 METAR/SPECI
23:30
V
25 °C 10 km+ - 010°   010° 4 kt METAR LFBD 212130Z AUTO 01004KT 330V090 CAVOK 25/19 Q1014 NOSIG
23:00
V
25 °C 10 km+ - 080°   080° 3 kt METAR LFBD 212100Z AUTO 08003KT 040V120 CAVOK 25/19 Q1014 NOSIG
22:30
V
26 °C 10 km+ - 050°   050° 3 kt METAR LFBD 212030Z AUTO 05003KT 020V080 CAVOK 26/20 Q1014 NOSIG
22:00
V
27 °C 10 km+ - 030°   030° 4 kt METAR LFBD 212000Z AUTO 03004KT CAVOK 27/20 Q1014 NOSIG
21:30
V
28 °C 10 km+ - 030°   030° 5 kt METAR LFBD 211930Z AUTO 03005KT CAVOK 28/19 Q1014 NOSIG
21:00
V
28 °C 10 km+ - 080°   080° 4 kt METAR LFBD 211900Z AUTO 08004KT 030V110 CAVOK 28/19 Q1014 NOSIG
20:30
V
29 °C 10 km+ - 040°   040° 5 kt METAR LFBD 211830Z AUTO 04005KT 020V080 CAVOK 29/19 Q1015 NOSIG
20:00
V
29 °C 10 km+ - 020°   020° 6 kt METAR LFBD 211800Z AUTO 02006KT CAVOK 29/19 Q1015 NOSIG
19:30
V
30 °C 10 km+ - 030°   030° 7 kt METAR LFBD 211730Z AUTO 03007KT CAVOK 30/19 Q1015 NOSIG
19:00
V
30 °C 10 km+ - 020°   020° 6 kt METAR LFBD 211700Z AUTO 02006KT CAVOK 30/18 Q1015 NOSIG
18:30
V
31 °C 10 km+ - Var   Var 3 kt METAR LFBD 211630Z AUTO VRB03KT CAVOK 31/18 Q1015 NOSIG
18:00
V
31 °C 10 km+ - Var   Var 3 kt METAR LFBD 211600Z AUTO VRB03KT CAVOK 31/18 Q1015 NOSIG
17:30
V
32 °C 10 km+ - 110°   110° 4 kt METAR LFBD 211530Z AUTO 11004KT 090V160 CAVOK 32/17 Q1015 NOSIG
17:00
V
31 °C 10 km+ - 120°   120° 5 kt METAR LFBD 211500Z AUTO 12005KT 090V170 CAVOK 31/18 Q1016 NOSIG
较旧的数据

下载我们的应用程序

在您的手机和平板电脑上轻松访问所有航空天气。
有许多网站上没有的功能,如离线支持和个人机场列表。

Studio Eveline

Benalmádena
España

我们和第三方通过cookies跟踪您在我们网站上的上网行为。如果您继续,我们认为您同意我们的cookie政策。 了解更多